createdAt,value
2019-02-24T00:00:40.423Z,102838.92
2019-02-24T00:03:30.356Z,102831.26
2019-02-24T00:06:20.467Z,102830.02
2019-02-24T00:09:09.904Z,102833.66
2019-02-24T00:11:59.996Z,102823.47
2019-02-24T00:14:50.977Z,102827.83
2019-02-24T00:17:41.377Z,102821.75
2019-02-24T00:20:31.513Z,102825.16
2019-02-24T00:23:21.744Z,102825.21
2019-02-24T00:26:11.670Z,102821.95
2019-02-24T00:29:01.795Z,102829.48
2019-02-24T00:31:51.627Z,102828.41
2019-02-24T00:34:41.367Z,102835.81
2019-02-24T00:37:31.531Z,102835.52
2019-02-24T00:40:21.620Z,102833.07
2019-02-24T00:43:11.264Z,102835.00
2019-02-24T00:46:01.470Z,102831.25
2019-02-24T00:48:51.322Z,102824.06
2019-02-24T00:51:41.375Z,102828.06
2019-02-24T00:54:31.537Z,102821.75
2019-02-24T00:57:21.311Z,102813.75
2019-02-24T01:00:12.097Z,102821.53
2019-02-24T01:03:03.479Z,102823.47
2019-02-24T01:05:54.243Z,102817.16
2019-02-24T01:08:44.196Z,102812.80
2019-02-24T01:11:34.211Z,102810.61
2019-02-24T01:14:24.095Z,102808.94
2019-02-24T01:17:13.909Z,102807.52
2019-02-24T01:20:03.850Z,102807.61
2019-02-24T01:22:53.875Z,102811.34
2019-02-24T01:25:43.703Z,102810.91
2019-02-24T01:28:33.843Z,102811.47
2019-02-24T01:31:23.714Z,102810.13
2019-02-24T01:34:13.771Z,102809.66
2019-02-24T01:37:03.871Z,102814.99
2019-02-24T01:39:53.803Z,102816.08
2019-02-24T01:42:43.704Z,102813.20
2019-02-24T01:45:33.581Z,102811.98
2019-02-24T01:48:23.400Z,102810.27
2019-02-24T01:51:13.125Z,102817.27
2019-02-24T01:54:02.925Z,102816.41
2019-02-24T01:56:53.007Z,102812.41
2019-02-24T01:59:43.342Z,102821.40
2019-02-24T02:02:33.410Z,102813.61
2019-02-24T02:05:23.373Z,102819.33
2019-02-24T02:08:13.092Z,102813.14
2019-02-24T02:11:03.206Z,102809.95
2019-02-24T02:13:53.060Z,102805.81
2019-02-24T02:16:43.262Z,102801.94
2019-02-24T02:19:32.853Z,102806.88
2019-02-24T02:22:23.023Z,102805.17
2019-02-24T02:25:12.615Z,102800.30
2019-02-24T02:28:02.327Z,102803.91
2019-02-24T02:30:51.974Z,102802.44
2019-02-24T02:33:42.135Z,102806.91
2019-02-24T02:36:31.677Z,102805.48
2019-02-24T02:39:21.612Z,102795.77
2019-02-24T02:42:12.120Z,102794.09
2019-02-24T02:45:02.287Z,102786.92
2019-02-24T02:47:52.762Z,102791.04
2019-02-24T02:50:42.706Z,102792.59
2019-02-24T02:53:32.583Z,102787.25
2019-02-24T02:56:22.612Z,102783.85
2019-02-24T02:59:13.062Z,102773.91
2019-02-24T03:02:03.169Z,102762.99
2019-02-24T03:04:53.795Z,102764.94
2019-02-24T03:07:47.633Z,102757.33
2019-02-24T03:10:37.409Z,102752.21
2019-02-24T03:13:27.571Z,102763.25
2019-02-24T03:16:23.123Z,102773.20
2019-02-24T03:19:12.872Z,102771.12
2019-02-24T03:22:03.473Z,102777.19
2019-02-24T03:24:53.662Z,102790.52
2019-02-24T03:27:43.924Z,102796.68
2019-02-24T03:30:33.844Z,102799.17
2019-02-24T03:33:23.797Z,102798.58
2019-02-24T03:36:13.830Z,102803.91
2019-02-24T03:39:04.193Z,102785.50
2019-02-24T03:41:54.973Z,102797.22
2019-02-24T03:44:45.060Z,102799.23
2019-02-24T03:47:34.657Z,102795.69
2019-02-24T03:50:24.962Z,102801.61
2019-02-24T03:53:14.991Z,102808.12
2019-02-24T03:56:04.888Z,102800.94
2019-02-24T03:58:54.400Z,102790.13
2019-02-24T04:01:44.411Z,102790.34
2019-02-24T04:04:34.765Z,102792.59
2019-02-24T04:07:24.952Z,102793.86
2019-02-24T04:10:15.043Z,102795.98
2019-02-24T04:13:05.118Z,102792.11
2019-02-24T04:15:55.338Z,102781.84
2019-02-24T04:18:45.049Z,102788.38
2019-02-24T04:21:34.905Z,102786.66
2019-02-24T04:24:24.921Z,102790.50
2019-02-24T04:27:14.689Z,102791.69
2019-02-24T04:30:05.473Z,102774.00
2019-02-24T04:32:55.143Z,102787.89
2019-02-24T04:35:44.956Z,102793.80
2019-02-24T04:38:34.961Z,102799.84
2019-02-24T04:41:24.889Z,102795.19
2019-02-24T04:44:14.742Z,102794.44
2019-02-24T04:47:05.117Z,102794.84
2019-02-24T04:49:54.341Z,102784.55
2019-02-24T04:52:44.003Z,102782.86
2019-02-24T04:55:33.773Z,102780.44
2019-02-24T04:58:23.876Z,102773.89
2019-02-24T05:01:14.227Z,102775.50
2019-02-24T05:04:04.127Z,102776.23
2019-02-24T05:06:53.921Z,102781.83
2019-02-24T05:09:43.600Z,102777.37
2019-02-24T05:12:33.250Z,102779.83
2019-02-24T05:15:23.372Z,102779.32
2019-02-24T05:18:13.506Z,102773.49
2019-02-24T05:21:03.420Z,102769.65
2019-02-24T05:23:53.160Z,102755.60
2019-02-24T05:26:42.668Z,102754.48
2019-02-24T05:29:32.174Z,102746.28
2019-02-24T05:32:21.959Z,102739.52
2019-02-24T05:35:11.233Z,102738.19
2019-02-24T05:38:00.852Z,102736.64
2019-02-24T05:40:51.035Z,102736.91
2019-02-24T05:43:41.003Z,102728.55
2019-02-24T05:46:31.151Z,102727.00
2019-02-24T05:49:21.174Z,102726.03
2019-02-24T05:52:10.786Z,102729.08
2019-02-24T05:55:01.282Z,102734.67
2019-02-24T05:57:50.993Z,102716.12
2019-02-24T06:00:40.995Z,102718.19
2019-02-24T06:03:30.817Z,102712.24
2019-02-24T06:06:20.452Z,102709.11
2019-02-24T06:09:11.585Z,102713.58
2019-02-24T06:12:01.446Z,102724.48
2019-02-24T06:14:51.186Z,102731.50
2019-02-24T06:17:41.149Z,102727.50
2019-02-24T06:20:30.952Z,102721.23
2019-02-24T06:23:21.082Z,102722.95
2019-02-24T06:26:12.139Z,102719.43
2019-02-24T06:29:01.975Z,102719.52
2019-02-24T06:31:51.947Z,102718.58
2019-02-24T06:34:41.171Z,102719.52
2019-02-24T06:37:31.156Z,102724.61
2019-02-24T06:40:21.145Z,102730.77
2019-02-24T06:43:10.994Z,102734.02
2019-02-24T06:46:01.131Z,102735.14
2019-02-24T06:48:50.616Z,102734.01
2019-02-24T06:51:40.595Z,102734.63
2019-02-24T06:54:30.794Z,102737.44
2019-02-24T06:57:21.405Z,102741.22
2019-02-24T07:00:14.135Z,102744.41
2019-02-24T07:03:03.183Z,102745.89
2019-02-24T07:05:53.349Z,102742.30
2019-02-24T07:08:42.985Z,102747.03
2019-02-24T07:11:32.798Z,102751.67
2019-02-24T07:14:22.928Z,102761.61
2019-02-24T07:17:13.786Z,102760.54
2019-02-24T07:20:03.613Z,102768.70
2019-02-24T07:22:54.510Z,102772.84
2019-02-24T07:25:44.804Z,102764.60
2019-02-24T07:28:34.610Z,102764.27
2019-02-24T07:31:24.217Z,102764.91
2019-02-24T07:34:13.764Z,102754.86
2019-02-24T07:37:12.600Z,102750.53
2019-02-24T07:39:55.450Z,102742.83
2019-02-24T07:42:45.321Z,102744.34
2019-02-24T07:45:35.451Z,102746.06
2019-02-24T07:48:25.683Z,102739.34
2019-02-24T07:51:15.407Z,102748.83
2019-02-24T07:54:05.042Z,102743.78
2019-02-24T07:56:54.666Z,102740.17
2019-02-24T07:59:44.236Z,102745.67
2019-02-24T08:02:33.241Z,102749.06
2019-02-24T08:05:22.981Z,102740.20
2019-02-24T08:08:16.359Z,102745.07
2019-02-24T08:11:04.256Z,102743.72
2019-02-24T08:13:54.106Z,102751.72
2019-02-24T08:16:43.831Z,102748.44
2019-02-24T08:19:33.387Z,102740.00
2019-02-24T08:22:23.242Z,102735.84
2019-02-24T08:25:13.375Z,102734.23
2019-02-24T08:28:03.088Z,102727.02
2019-02-24T08:30:52.898Z,102736.55
2019-02-24T08:33:43.036Z,102733.73
2019-02-24T08:36:33.077Z,102740.98
2019-02-24T08:39:22.562Z,102737.89
2019-02-24T08:42:12.503Z,102726.51
2019-02-24T08:45:02.649Z,102733.35
2019-02-24T08:47:52.935Z,102738.77
2019-02-24T08:50:42.290Z,102742.00
2019-02-24T08:53:32.163Z,102748.75
2019-02-24T08:56:22.389Z,102746.16
2019-02-24T08:59:12.130Z,102748.60
2019-02-24T09:02:02.153Z,102748.36
2019-02-24T09:04:52.074Z,102758.08
2019-02-24T09:07:42.167Z,102748.30
2019-02-24T09:10:33.199Z,102756.61
2019-02-24T09:13:23.057Z,102771.95
2019-02-24T09:16:12.928Z,102782.41
2019-02-24T09:19:02.931Z,102796.84
2019-02-24T09:21:52.923Z,102800.59
2019-02-24T09:24:43.273Z,102803.30
2019-02-24T09:27:33.205Z,102804.12
2019-02-24T09:30:22.910Z,102804.33
2019-02-24T09:33:12.429Z,102803.50
2019-02-24T09:36:02.351Z,102797.84
2019-02-24T09:38:52.181Z,102798.51
2019-02-24T09:41:41.772Z,102793.00
2019-02-24T09:44:31.777Z,102796.81
2019-02-24T09:47:21.414Z,102803.69
2019-02-24T09:50:11.128Z,102804.34
2019-02-24T09:53:01.311Z,102810.69
2019-02-24T09:55:51.145Z,102806.47
2019-02-24T09:58:41.231Z,102794.20
2019-02-24T10:01:31.272Z,102790.84
2019-02-24T10:04:21.272Z,102794.95
2019-02-24T10:07:11.414Z,102779.53
2019-02-24T10:10:01.190Z,102775.59
2019-02-24T10:12:50.981Z,102768.39
2019-02-24T10:15:41.136Z,102769.46
2019-02-24T10:18:31.030Z,102760.20
2019-02-24T10:21:20.715Z,102756.45
2019-02-24T10:24:10.496Z,102760.88
2019-02-24T10:27:00.972Z,102746.09
2019-02-24T10:29:51.071Z,102767.51
2019-02-24T10:32:40.491Z,102760.08
2019-02-24T10:35:30.504Z,102760.25
2019-02-24T10:38:20.131Z,102757.20
2019-02-24T10:41:10.096Z,102750.02
2019-02-24T10:44:00.829Z,102750.03
2019-02-24T10:46:50.721Z,102753.99
2019-02-24T10:49:40.851Z,102754.35
2019-02-24T10:52:30.796Z,102747.28
2019-02-24T10:55:20.510Z,102742.22
2019-02-24T10:58:10.312Z,102748.30
2019-02-24T11:00:59.772Z,102744.27
2019-02-24T11:03:49.436Z,102741.22
2019-02-24T11:06:39.216Z,102730.23
2019-02-24T11:09:28.765Z,102714.72
2019-02-24T11:12:18.799Z,102702.03
2019-02-24T11:15:09.211Z,102691.54
2019-02-24T11:17:58.485Z,102697.78
2019-02-24T11:20:48.881Z,102710.69
2019-02-24T11:23:38.650Z,102716.80
2019-02-24T11:26:29.318Z,102735.47
2019-02-24T11:29:19.252Z,102719.34
2019-02-24T11:32:09.221Z,102709.75
2019-02-24T11:34:59.206Z,102701.63
2019-02-24T11:37:49.034Z,102698.26
2019-02-24T11:40:38.848Z,102702.22
2019-02-24T11:43:29.002Z,102700.73
2019-02-24T11:46:19.062Z,102697.76
2019-02-24T11:49:08.881Z,102702.08
2019-02-24T11:52:03.868Z,102710.45
2019-02-24T11:54:50.724Z,102692.27
2019-02-24T11:57:41.024Z,102682.34
2019-02-24T12:00:31.003Z,102681.27
2019-02-24T12:03:21.364Z,102681.09
2019-02-24T12:06:10.942Z,102687.05
2019-02-24T12:09:05.162Z,102683.84
2019-02-24T12:11:53.869Z,102685.91
2019-02-24T12:14:44.090Z,102689.38
2019-02-24T12:17:34.010Z,102698.14
2019-02-24T12:20:23.832Z,102696.34
2019-02-24T12:23:13.992Z,102691.80
2019-02-24T12:26:04.429Z,102696.18
2019-02-24T12:28:54.910Z,102706.58
2019-02-24T12:31:44.576Z,102700.95
2019-02-24T12:34:34.555Z,102708.59
2019-02-24T12:37:24.393Z,102703.09
2019-02-24T12:40:14.469Z,102693.95
2019-02-24T12:43:04.626Z,102686.48
2019-02-24T12:45:54.562Z,102685.24
2019-02-24T12:48:44.062Z,102688.13
2019-02-24T12:51:34.785Z,102682.58
2019-02-24T12:54:24.023Z,102678.72
2019-02-24T12:57:13.350Z,102683.77
2019-02-24T13:00:05.012Z,102683.80
2019-02-24T13:02:54.940Z,102670.86
2019-02-24T13:05:44.901Z,102670.56
2019-02-24T13:08:34.708Z,102681.68
2019-02-24T13:11:24.950Z,102683.72
2019-02-24T13:14:14.632Z,102675.00
2019-02-24T13:17:04.575Z,102678.69
2019-02-24T13:19:54.708Z,102674.90
2019-02-24T13:22:47.069Z,102664.70
2019-02-24T13:25:36.684Z,102662.12
2019-02-24T13:28:26.617Z,102658.29
2019-02-24T13:31:16.501Z,102660.03
2019-02-24T13:34:06.914Z,102665.75
2019-02-24T13:36:56.618Z,102673.05
2019-02-24T13:39:46.073Z,102664.83
2019-02-24T13:42:36.050Z,102667.83
2019-02-24T13:45:26.939Z,102666.63
2019-02-24T13:48:16.363Z,102657.60
2019-02-24T13:51:06.678Z,102649.39
2019-02-24T13:53:56.629Z,102653.27
2019-02-24T13:56:46.621Z,102652.52
2019-02-24T13:59:37.369Z,102656.09
2019-02-24T14:02:26.461Z,102651.82
2019-02-24T14:05:16.361Z,102663.47
2019-02-24T14:08:06.645Z,102662.66
2019-02-24T14:10:56.717Z,102659.94
2019-02-24T14:13:46.508Z,102651.14
2019-02-24T14:16:36.253Z,102646.96
2019-02-24T14:19:26.335Z,102644.91
2019-02-24T14:22:15.935Z,102652.67
2019-02-24T14:25:06.568Z,102649.47
2019-02-24T14:27:56.575Z,102655.84
2019-02-24T14:30:46.446Z,102652.45
2019-02-24T14:33:36.687Z,102650.86
2019-02-24T14:36:27.022Z,102645.72
2019-02-24T14:39:17.157Z,102647.44
2019-02-24T14:42:06.977Z,102646.23
2019-02-24T14:44:56.698Z,102646.85
2019-02-24T14:47:46.550Z,102649.67
2019-02-24T14:50:36.461Z,102661.70
2019-02-24T14:53:26.160Z,102656.11
2019-02-24T14:56:16.755Z,102649.67
2019-02-24T14:59:07.149Z,102652.94
2019-02-24T15:01:57.016Z,102651.97
2019-02-24T15:04:47.219Z,102653.21
2019-02-24T15:07:37.014Z,102658.02
2019-02-24T15:10:26.201Z,102654.55
2019-02-24T15:13:15.554Z,102655.66
2019-02-24T15:16:05.435Z,102653.58
2019-02-24T15:18:55.227Z,102658.17
2019-02-24T15:21:45.500Z,102656.30
2019-02-24T15:24:35.886Z,102652.81
2019-02-24T15:27:25.581Z,102653.55
2019-02-24T15:30:20.052Z,102652.66
2019-02-24T15:33:09.921Z,102643.83
2019-02-24T15:35:59.495Z,102649.66
2019-02-24T15:38:49.437Z,102647.02
2019-02-24T15:41:38.972Z,102643.93
2019-02-24T15:44:29.094Z,102642.24
2019-02-24T15:47:18.659Z,102639.44
2019-02-24T15:50:09.012Z,102647.08
2019-02-24T15:52:58.856Z,102648.26
2019-02-24T15:55:48.990Z,102650.03
2019-02-24T15:58:38.893Z,102648.80
2019-02-24T16:01:28.912Z,102639.81
2019-02-24T16:04:19.045Z,102644.84
2019-02-24T16:07:09.159Z,102639.22
2019-02-24T16:09:59.045Z,102636.95
2019-02-24T16:12:49.732Z,102645.41
2019-02-24T16:15:39.950Z,102642.48
2019-02-24T16:18:29.580Z,102641.33
2019-02-24T16:21:19.356Z,102645.33
2019-02-24T16:24:09.624Z,102640.08
2019-02-24T16:26:59.526Z,102637.02
2019-02-24T16:29:49.331Z,102639.22
2019-02-24T16:32:39.016Z,102636.33
2019-02-24T16:35:28.685Z,102635.95
2019-02-24T16:38:18.612Z,102638.84
2019-02-24T16:41:08.466Z,102639.51
2019-02-24T16:43:58.725Z,102642.88
2019-02-24T16:46:48.610Z,102646.19
2019-02-24T16:49:38.676Z,102644.42
2019-02-24T16:52:28.050Z,102640.31
2019-02-24T16:55:17.706Z,102638.38
2019-02-24T16:58:07.523Z,102636.94
2019-02-24T17:00:57.021Z,102639.90
2019-02-24T17:03:46.538Z,102639.98
2019-02-24T17:06:35.917Z,102646.00
2019-02-24T17:09:25.840Z,102645.87
2019-02-24T17:12:15.744Z,102650.42
2019-02-24T17:15:06.872Z,102655.38
2019-02-24T17:17:56.877Z,102648.62
2019-02-24T17:20:47.155Z,102662.00
2019-02-24T17:23:37.095Z,102663.53
2019-02-24T17:26:26.975Z,102674.86
2019-02-24T17:29:16.281Z,102680.42
2019-02-24T17:32:07.313Z,102680.40
2019-02-24T17:34:57.345Z,102685.77
2019-02-24T17:37:47.424Z,102684.25
2019-02-24T17:40:37.229Z,102686.77
2019-02-24T17:43:27.119Z,102687.41
2019-02-24T17:46:16.692Z,102687.17
2019-02-24T17:49:06.295Z,102685.62
2019-02-24T17:51:56.192Z,102682.34
2019-02-24T17:54:45.736Z,102682.80
2019-02-24T17:57:35.755Z,102693.16
2019-02-24T18:00:28.816Z,102697.84
2019-02-24T18:03:18.636Z,102698.11
2019-02-24T18:06:08.749Z,102702.27
2019-02-24T18:08:58.746Z,102697.35
2019-02-24T18:11:48.792Z,102708.91
2019-02-24T18:14:38.864Z,102710.19
2019-02-24T18:17:28.214Z,102708.27
2019-02-24T18:20:18.080Z,102700.43
2019-02-24T18:23:08.265Z,102699.69
2019-02-24T18:25:59.475Z,102698.94
2019-02-24T18:28:49.422Z,102698.45
2019-02-24T18:31:39.558Z,102691.00
2019-02-24T18:34:29.010Z,102682.50
2019-02-24T18:37:18.989Z,102689.85
2019-02-24T18:40:11.389Z,102689.95
2019-02-24T18:43:01.182Z,102683.52
2019-02-24T18:45:51.527Z,102681.60
2019-02-24T18:48:41.228Z,102677.46
2019-02-24T18:51:31.320Z,102678.41
2019-02-24T18:54:21.156Z,102680.33
2019-02-24T18:57:11.046Z,102677.59
2019-02-24T19:00:01.574Z,102679.52
2019-02-24T19:02:54.829Z,102678.09
2019-02-24T19:05:44.736Z,102672.67
2019-02-24T19:08:34.819Z,102670.44
2019-02-24T19:11:24.488Z,102675.20
2019-02-24T19:14:14.223Z,102670.42
2019-02-24T19:17:04.322Z,102668.67
2019-02-24T19:19:54.079Z,102670.74
2019-02-24T19:22:43.963Z,102669.09
2019-02-24T19:25:34.046Z,102676.73
2019-02-24T19:28:23.916Z,102679.29
2019-02-24T19:31:14.446Z,102678.25
2019-02-24T19:34:06.791Z,102671.77
2019-02-24T19:36:55.901Z,102677.52
2019-02-24T19:39:45.354Z,102681.40
2019-02-24T19:42:36.430Z,102681.19
2019-02-24T19:45:26.477Z,102687.78
2019-02-24T19:48:16.101Z,102687.78
2019-02-24T19:51:06.054Z,102684.67
2019-02-24T19:53:55.925Z,102694.98
2019-02-24T19:56:45.787Z,102692.88
2019-02-24T19:59:35.703Z,102701.07
2019-02-24T20:02:29.541Z,102694.27
2019-02-24T20:05:19.820Z,102692.42
2019-02-24T20:08:11.092Z,102705.41
2019-02-24T20:11:08.514Z,102709.24
2019-02-24T20:13:58.294Z,102717.70
2019-02-24T20:16:48.611Z,102714.70
2019-02-24T20:19:38.717Z,102713.50
2019-02-24T20:22:28.841Z,102722.03
2019-02-24T20:25:18.951Z,102720.77
2019-02-24T20:28:09.033Z,102717.23
2019-02-24T20:30:59.417Z,102718.40
2019-02-24T20:33:49.069Z,102722.83
2019-02-24T20:36:39.347Z,102714.86
2019-02-24T20:39:28.870Z,102715.34
2019-02-24T20:42:18.776Z,102714.27
2019-02-24T20:45:10.584Z,102715.31
2019-02-24T20:48:00.419Z,102710.50
2019-02-24T20:50:51.250Z,102706.26
2019-02-24T20:53:40.865Z,102704.47
2019-02-24T20:56:30.236Z,102698.63
2019-02-24T20:59:20.147Z,102701.94
2019-02-24T21:02:09.908Z,102708.75
2019-02-24T21:05:00.313Z,102711.43
2019-02-24T21:07:50.751Z,102712.34
2019-02-24T21:10:40.647Z,102703.94
2019-02-24T21:13:30.482Z,102693.89
2019-02-24T21:16:20.445Z,102704.98
2019-02-24T21:19:09.830Z,102699.13
2019-02-24T21:22:00.074Z,102695.23
2019-02-24T21:24:49.964Z,102701.81
2019-02-24T21:27:39.839Z,102697.53
2019-02-24T21:30:31.696Z,102700.95
2019-02-24T21:33:20.694Z,102709.28
2019-02-24T21:36:10.443Z,102709.77
2019-02-24T21:38:59.897Z,102707.71
2019-02-24T21:41:49.341Z,102712.84
2019-02-24T21:44:39.285Z,102712.77
2019-02-24T21:47:29.350Z,102709.96
2019-02-24T21:50:19.604Z,102695.52
2019-02-24T21:53:09.232Z,102699.94
2019-02-24T21:55:59.389Z,102709.47
2019-02-24T21:58:49.104Z,102714.51
2019-02-24T22:01:39.133Z,102714.77
2019-02-24T22:04:28.935Z,102721.37
2019-02-24T22:07:18.311Z,102712.73
2019-02-24T22:10:09.610Z,102713.73
2019-02-24T22:12:59.567Z,102708.39
2019-02-24T22:15:49.024Z,102707.30
2019-02-24T22:18:39.438Z,102700.27
2019-02-24T22:21:29.481Z,102703.91
2019-02-24T22:24:18.977Z,102720.97
2019-02-24T22:27:08.661Z,102724.38
2019-02-24T22:29:58.471Z,102729.63
2019-02-24T22:32:48.446Z,102722.46
2019-02-24T22:35:38.924Z,102719.17
2019-02-24T22:38:29.104Z,102721.99
2019-02-24T22:41:19.189Z,102706.19
2019-02-24T22:44:08.872Z,102716.55
2019-02-24T22:46:58.581Z,102712.06
2019-02-24T22:49:48.180Z,102715.70
2019-02-24T22:52:37.748Z,102726.54
2019-02-24T22:55:27.316Z,102727.64
2019-02-24T22:58:17.256Z,102730.94
2019-02-24T23:01:16.152Z,102735.56
2019-02-24T23:04:05.954Z,102746.89
2019-02-24T23:06:57.028Z,102741.44
2019-02-24T23:09:47.200Z,102747.74
2019-02-24T23:12:36.919Z,102743.02
2019-02-24T23:15:27.099Z,102740.48
2019-02-24T23:18:16.877Z,102746.20
2019-02-24T23:21:08.211Z,102741.10
2019-02-24T23:23:58.009Z,102742.06
2019-02-24T23:26:49.540Z,102739.90
2019-02-24T23:29:39.350Z,102740.62
2019-02-24T23:32:29.135Z,102738.56
2019-02-24T23:35:18.845Z,102736.27
2019-02-24T23:38:08.711Z,102730.09
2019-02-24T23:40:59.091Z,102724.23
2019-02-24T23:43:49.508Z,102726.19
2019-02-24T23:46:39.569Z,102723.38
2019-02-24T23:49:29.590Z,102730.16
2019-02-24T23:52:19.286Z,102719.95
2019-02-24T23:55:09.351Z,102716.89
2019-02-24T23:57:58.819Z,102714.80
